createdAt,value
2017-10-12T00:01:00.179Z,10.97
2017-10-12T00:03:26.466Z,9.73
2017-10-12T00:05:52.739Z,10.93
2017-10-12T00:08:18.994Z,9.40
2017-10-12T00:10:45.326Z,9.70
2017-10-12T00:13:11.635Z,10.43
2017-10-12T00:15:37.921Z,9.70
2017-10-12T00:18:04.957Z,11.27
2017-10-12T00:20:31.978Z,10.53
2017-10-12T00:22:58.387Z,10.07
2017-10-12T00:25:24.698Z,11.77
2017-10-12T00:27:51.814Z,9.97
2017-10-12T00:30:18.838Z,10.00
2017-10-12T00:32:45.133Z,9.73
2017-10-12T00:35:12.191Z,10.70
2017-10-12T00:37:38.551Z,9.80
2017-10-12T00:40:04.879Z,10.47
2017-10-12T00:42:31.927Z,10.00
2017-10-12T00:44:58.927Z,11.33
2017-10-12T00:47:25.215Z,9.93
2017-10-12T00:49:52.299Z,10.20
2017-10-12T00:52:18.563Z,9.60
2017-10-12T00:54:45.596Z,10.37
2017-10-12T00:57:11.882Z,9.80
2017-10-12T00:59:38.938Z,10.23
2017-10-12T01:02:06.010Z,8.80
2017-10-12T01:04:32.356Z,9.60
2017-10-12T01:06:58.642Z,8.83
2017-10-12T01:09:24.938Z,8.70
2017-10-12T01:11:51.231Z,9.27
2017-10-12T01:14:17.539Z,7.90
2017-10-12T01:16:44.623Z,8.30
2017-10-12T01:19:11.656Z,8.70
2017-10-12T01:21:38.005Z,8.50
2017-10-12T01:24:04.367Z,9.30
2017-10-12T01:26:31.398Z,9.17
2017-10-12T01:28:57.759Z,10.13
2017-10-12T01:31:24.787Z,8.33
2017-10-12T01:33:51.059Z,10.73
2017-10-12T01:36:17.334Z,8.60
2017-10-12T01:38:43.655Z,9.50
2017-10-12T01:41:09.942Z,9.63
2017-10-12T01:43:36.239Z,9.63
2017-10-12T01:46:03.323Z,9.87
2017-10-12T01:48:41.839Z,9.43
2017-10-12T01:51:08.122Z,9.17
2017-10-12T01:53:34.413Z,9.00
2017-10-12T01:56:01.460Z,8.60
2017-10-12T01:58:28.515Z,8.47
2017-10-12T02:00:54.782Z,8.60
2017-10-12T02:03:21.054Z,7.50
2017-10-12T02:05:47.347Z,7.73
2017-10-12T02:08:13.662Z,7.07
2017-10-12T02:10:40.708Z,6.40
2017-10-12T02:13:07.030Z,6.07
2017-10-12T02:15:33.331Z,5.73
2017-10-12T02:17:59.662Z,6.13
2017-10-12T02:20:25.967Z,6.30
2017-10-12T02:22:52.258Z,6.93
2017-10-12T02:25:18.707Z,5.87
2017-10-12T02:27:44.970Z,6.27
2017-10-12T02:30:11.992Z,5.83
2017-10-12T02:32:39.083Z,6.37
2017-10-12T02:35:05.370Z,6.50
2017-10-12T02:37:31.697Z,6.50
2017-10-12T02:39:57.995Z,5.83
2017-10-12T02:42:24.268Z,5.90
2017-10-12T02:44:50.537Z,6.80
2017-10-12T02:47:16.809Z,7.07
2017-10-12T02:49:43.114Z,7.20
2017-10-12T02:52:09.370Z,7.90
2017-10-12T02:54:35.658Z,7.53
2017-10-12T02:57:02.022Z,7.97
2017-10-12T02:59:29.018Z,7.57
2017-10-12T03:01:55.277Z,7.60
2017-10-12T03:04:21.584Z,8.07
2017-10-12T03:06:47.869Z,8.30
2017-10-12T03:09:14.150Z,7.93
2017-10-12T03:11:41.182Z,6.93
2017-10-12T03:14:08.262Z,8.20
2017-10-12T03:16:35.305Z,7.93
2017-10-12T03:19:02.337Z,7.40
2017-10-12T03:21:28.615Z,9.10
2017-10-12T03:23:54.883Z,8.13
2017-10-12T03:26:22.958Z,8.50
2017-10-12T03:28:49.228Z,8.33
2017-10-12T03:31:16.230Z,10.20
2017-10-12T03:33:42.526Z,8.13
2017-10-12T03:36:09.554Z,7.60
2017-10-12T03:38:35.868Z,8.10
2017-10-12T03:41:02.214Z,6.93
2017-10-12T03:43:28.506Z,7.13
2017-10-12T03:45:55.518Z,7.60
2017-10-12T03:48:21.802Z,8.13
2017-10-12T03:50:48.095Z,7.73
2017-10-12T03:53:14.382Z,7.10
2017-10-12T03:55:40.678Z,7.00
2017-10-12T03:58:08.410Z,7.57
2017-10-12T04:00:36.199Z,7.60
2017-10-12T04:03:04.003Z,7.23
2017-10-12T04:05:30.253Z,7.70
2017-10-12T04:07:57.230Z,7.60
2017-10-12T04:10:23.552Z,6.87
2017-10-12T04:12:49.807Z,6.90
2017-10-12T04:15:16.074Z,5.23
2017-10-12T04:17:42.346Z,7.33
2017-10-12T04:20:08.591Z,6.30
2017-10-12T04:22:34.816Z,6.63
2017-10-12T04:25:01.074Z,8.33
2017-10-12T04:27:28.295Z,6.30
2017-10-12T04:29:55.297Z,6.90
2017-10-12T04:32:21.567Z,6.00
2017-10-12T04:34:48.589Z,6.27
2017-10-12T04:37:14.839Z,5.10
2017-10-12T04:39:41.107Z,6.80
2017-10-12T04:42:08.099Z,6.63
2017-10-12T04:44:34.330Z,5.10
2017-10-12T04:47:00.595Z,6.20
2017-10-12T04:49:26.830Z,5.20
2017-10-12T04:51:53.843Z,6.60
2017-10-12T04:54:20.263Z,5.80
2017-10-12T04:56:48.058Z,5.50
2017-10-12T04:59:14.370Z,5.60
2017-10-12T05:01:40.713Z,6.27
2017-10-12T05:04:07.817Z,6.17
2017-10-12T05:06:34.091Z,5.37
2017-10-12T05:09:00.372Z,5.40
2017-10-12T05:11:26.644Z,5.90
2017-10-12T05:13:52.881Z,5.67
2017-10-12T05:16:19.209Z,5.00
2017-10-12T05:18:45.449Z,5.50
2017-10-12T05:21:12.438Z,5.90
2017-10-12T05:23:38.715Z,5.80
2017-10-12T05:26:05.707Z,6.37
2017-10-12T05:28:32.196Z,4.90
2017-10-12T05:30:58.590Z,4.20
2017-10-12T05:33:25.598Z,5.60
2017-10-12T05:35:51.866Z,4.90
2017-10-12T05:38:18.126Z,4.20
2017-10-12T05:40:44.386Z,3.70
2017-10-12T05:43:10.685Z,4.17
2017-10-12T05:45:36.978Z,4.47
2017-10-12T05:48:03.960Z,4.60
2017-10-12T05:53:35.489Z,4.27
2017-10-12T05:56:02.522Z,5.50
2017-10-12T05:58:28.815Z,3.73
2017-10-12T06:00:55.170Z,4.63
2017-10-12T06:03:22.256Z,3.97
2017-10-12T06:05:48.532Z,4.17
2017-10-12T06:08:14.837Z,4.23
2017-10-12T06:10:41.137Z,3.97
2017-10-12T06:13:07.434Z,3.80
2017-10-12T06:15:33.811Z,3.63
2017-10-12T06:18:00.090Z,3.57
2017-10-12T06:20:26.369Z,3.63
2017-10-12T06:22:52.691Z,3.60
2017-10-12T06:25:19.713Z,4.13
2017-10-12T06:27:46.019Z,3.93
2017-10-12T06:30:14.903Z,3.93
2017-10-12T06:32:41.192Z,4.30
2017-10-12T06:35:07.497Z,4.60
2017-10-12T06:37:33.803Z,4.07
2017-10-12T06:40:00.091Z,4.87
2017-10-12T06:42:26.392Z,4.03
2017-10-12T06:44:52.686Z,4.20
2017-10-12T06:47:19.703Z,4.27
2017-10-12T06:49:46.015Z,5.13
2017-10-12T06:52:12.323Z,3.93
2017-10-12T06:54:38.625Z,5.10
2017-10-12T06:57:04.896Z,5.10
2017-10-12T06:59:31.210Z,3.47
2017-10-12T07:01:58.235Z,4.13
2017-10-12T07:04:24.527Z,4.50
2017-10-12T07:06:50.835Z,4.07
2017-10-12T07:09:17.862Z,4.00
2017-10-12T07:11:45.629Z,3.57
2017-10-12T07:14:11.942Z,4.00
2017-10-12T07:16:38.223Z,3.83
2017-10-12T07:19:05.251Z,5.20
2017-10-12T07:21:31.558Z,8.13
2017-10-12T07:23:57.825Z,3.70
2017-10-12T07:26:24.581Z,3.77
2017-10-12T07:28:50.926Z,4.10
2017-10-12T07:31:18.927Z,4.53
2017-10-12T07:33:45.944Z,3.97
2017-10-12T07:36:12.302Z,4.60
2017-10-12T07:38:39.305Z,4.43
2017-10-12T07:41:05.594Z,3.07
2017-10-12T07:43:32.080Z,4.00
2017-10-12T07:45:58.377Z,5.43
2017-10-12T07:48:24.679Z,5.50
2017-10-12T07:50:50.971Z,3.67
2017-10-12T07:53:17.942Z,3.57
2017-10-12T07:55:45.102Z,4.57
2017-10-12T07:58:11.386Z,4.47
2017-10-12T08:00:38.398Z,4.10
2017-10-12T08:03:04.672Z,4.30
2017-10-12T08:05:30.991Z,3.70
2017-10-12T08:07:57.307Z,4.10
2017-10-12T08:10:23.659Z,4.30
2017-10-12T08:12:50.074Z,3.53
2017-10-12T08:15:16.324Z,3.67
2017-10-12T08:17:43.357Z,4.00
2017-10-12T08:20:09.873Z,4.20
2017-10-12T08:22:36.123Z,5.60
2017-10-12T08:25:03.183Z,3.90
2017-10-12T08:27:29.603Z,3.47
2017-10-12T08:29:55.935Z,4.50
2017-10-12T08:32:23.189Z,4.93
2017-10-12T08:34:49.515Z,4.97
2017-10-12T08:37:15.783Z,5.17
2017-10-12T08:39:42.078Z,4.47
2017-10-12T08:42:09.127Z,5.63
2017-10-12T08:44:36.171Z,5.53
2017-10-12T08:47:03.222Z,4.37
2017-10-12T08:49:30.259Z,3.70
2017-10-12T08:51:56.523Z,6.00
2017-10-12T08:54:22.790Z,4.10
2017-10-12T08:56:49.095Z,4.53
2017-10-12T08:59:16.127Z,4.30
2017-10-12T09:01:42.410Z,6.20
2017-10-12T09:04:08.674Z,4.20
2017-10-12T09:06:35.703Z,5.00
2017-10-12T09:09:01.998Z,5.27
2017-10-12T09:11:29.733Z,4.40
2017-10-12T09:13:55.991Z,5.10
2017-10-12T09:16:22.238Z,4.50
2017-10-12T09:18:48.523Z,4.83
2017-10-12T09:21:14.771Z,5.63
2017-10-12T09:23:41.044Z,4.90
2017-10-12T09:26:14.838Z,4.40
2017-10-12T09:28:41.090Z,5.47
2017-10-12T09:31:08.151Z,3.80
2017-10-12T09:33:34.635Z,3.83
2017-10-12T09:36:00.920Z,5.50
2017-10-12T09:38:27.217Z,4.60
2017-10-12T09:40:53.498Z,4.00
2017-10-12T09:43:20.502Z,5.77
2017-10-12T09:45:46.748Z,3.87
2017-10-12T09:48:13.042Z,4.30
2017-10-12T09:50:39.288Z,4.83
2017-10-12T09:53:05.565Z,3.50
2017-10-12T09:55:32.603Z,4.53
2017-10-12T09:57:58.853Z,4.07
2017-10-12T10:00:25.131Z,5.43
2017-10-12T10:02:52.162Z,4.60
2017-10-12T10:05:19.167Z,4.77
2017-10-12T10:07:45.420Z,4.50
2017-10-12T10:10:11.923Z,4.43
2017-10-12T10:12:38.381Z,3.53
2017-10-12T10:15:05.424Z,4.87
2017-10-12T10:17:31.743Z,4.53
2017-10-12T10:19:58.607Z,3.50
2017-10-12T10:22:24.893Z,4.07
2017-10-12T10:24:51.172Z,3.97
2017-10-12T10:27:17.447Z,4.27
2017-10-12T10:29:43.709Z,4.43
2017-10-12T10:32:10.895Z,4.73
2017-10-12T10:34:37.305Z,5.30
2017-10-12T10:37:03.555Z,4.70
2017-10-12T10:39:30.615Z,4.53
2017-10-12T10:41:56.867Z,4.63
2017-10-12T10:44:23.170Z,3.83
2017-10-12T10:46:50.190Z,3.70
2017-10-12T10:49:17.928Z,3.70
2017-10-12T10:51:44.175Z,3.80
2017-10-12T10:54:10.460Z,4.27
2017-10-12T10:56:36.695Z,5.20
2017-10-12T10:59:03.769Z,4.30
2017-10-12T11:01:30.042Z,3.80
2017-10-12T11:03:56.302Z,4.80
2017-10-12T11:06:23.352Z,5.97
2017-10-12T11:08:49.795Z,4.33
2017-10-12T11:11:16.083Z,4.50
2017-10-12T11:13:42.331Z,4.10
2017-10-12T11:16:09.698Z,4.30
2017-10-12T11:18:35.940Z,3.73
2017-10-12T11:21:02.275Z,4.00
2017-10-12T11:23:28.575Z,4.00
2017-10-12T11:25:54.882Z,3.30
2017-10-12T11:28:21.140Z,4.23
2017-10-12T11:30:47.535Z,4.00
2017-10-12T11:33:13.803Z,4.50
2017-10-12T11:35:41.055Z,4.90
2017-10-12T11:38:08.064Z,3.73
2017-10-12T11:40:34.369Z,5.07
2017-10-12T11:43:00.627Z,4.17
2017-10-12T11:45:26.891Z,4.40
2017-10-12T11:47:53.147Z,4.90
2017-10-12T11:50:20.151Z,3.80
2017-10-12T11:52:46.426Z,4.73
2017-10-12T11:55:13.450Z,4.90
2017-10-12T11:57:39.723Z,4.77
2017-10-12T12:00:06.789Z,3.93
2017-10-12T12:02:33.075Z,4.10
2017-10-12T12:04:59.460Z,4.50
2017-10-12T12:07:25.800Z,4.50
2017-10-12T12:09:52.799Z,3.47
2017-10-12T12:12:19.059Z,5.13
2017-10-12T12:14:45.340Z,3.80
2017-10-12T12:17:11.623Z,3.57
2017-10-12T12:19:37.878Z,4.73
2017-10-12T12:22:04.195Z,4.50
2017-10-12T12:24:31.200Z,3.67
2017-10-12T12:26:57.495Z,3.40
2017-10-12T12:29:24.515Z,4.33
2017-10-12T12:31:50.779Z,3.20
2017-10-12T12:34:17.030Z,2.80
2017-10-12T12:36:44.226Z,3.50
2017-10-12T12:39:10.491Z,4.17
2017-10-12T12:41:36.759Z,3.73
2017-10-12T12:44:03.911Z,2.90
2017-10-12T12:46:30.897Z,3.70
2017-10-12T12:48:57.166Z,3.50
2017-10-12T12:51:23.465Z,3.80
2017-10-12T12:53:49.730Z,3.53
2017-10-12T12:56:16.015Z,3.73
2017-10-12T12:58:43.041Z,3.93
2017-10-12T13:01:09.323Z,2.90
2017-10-12T13:03:35.582Z,3.57
2017-10-12T13:06:01.907Z,2.60
2017-10-12T13:08:28.162Z,3.63
2017-10-12T13:10:54.470Z,4.40
2017-10-12T13:13:20.756Z,3.93
2017-10-12T13:15:47.020Z,2.80
2017-10-12T13:18:13.277Z,3.50
2017-10-12T13:20:39.611Z,2.70
2017-10-12T13:23:05.898Z,3.00
2017-10-12T13:25:32.202Z,2.47
2017-10-12T13:27:58.487Z,3.77
2017-10-12T13:30:25.478Z,3.27
2017-10-12T13:32:51.744Z,3.20
2017-10-12T13:35:18.010Z,6.20
2017-10-12T13:37:44.370Z,4.87
2017-10-12T13:40:10.695Z,5.60
2017-10-12T13:42:37.121Z,3.07
2017-10-12T13:45:04.155Z,4.00
2017-10-12T13:47:30.414Z,4.13
2017-10-12T13:49:57.442Z,3.37
2017-10-12T13:52:23.695Z,4.13
2017-10-12T13:54:50.035Z,4.97
2017-10-12T13:57:16.325Z,4.47
2017-10-12T13:59:42.594Z,3.80
2017-10-12T14:02:08.870Z,3.30
2017-10-12T14:04:35.159Z,3.67
2017-10-12T14:07:01.600Z,2.80
2017-10-12T14:09:28.715Z,4.20
2017-10-12T14:11:55.025Z,3.10
2017-10-12T14:14:21.270Z,4.60
2017-10-12T14:16:47.535Z,2.97
2017-10-12T14:19:13.822Z,3.97
2017-10-12T14:21:40.843Z,3.07
2017-10-12T14:24:07.086Z,3.37
2017-10-12T14:26:34.182Z,3.50
2017-10-12T14:29:00.431Z,3.40
2017-10-12T14:31:26.678Z,2.80
2017-10-12T14:33:52.967Z,3.83
2017-10-12T14:36:20.017Z,3.50
2017-10-12T14:38:47.187Z,6.70
2017-10-12T14:41:14.243Z,4.90
2017-10-12T14:43:40.554Z,5.47
2017-10-12T14:46:07.599Z,3.50
2017-10-12T14:48:33.886Z,3.67
2017-10-12T14:51:00.123Z,4.50
2017-10-12T14:53:26.389Z,4.30
2017-10-12T14:55:54.154Z,3.77
2017-10-12T14:58:20.456Z,3.20
2017-10-12T15:00:46.728Z,3.97
2017-10-12T15:03:14.614Z,3.60
2017-10-12T15:05:41.639Z,2.77
2017-10-12T15:08:08.054Z,2.77
2017-10-12T15:10:34.359Z,3.63
2017-10-12T15:13:01.361Z,3.27
2017-10-12T15:15:27.613Z,3.90
2017-10-12T15:17:54.642Z,4.47
2017-10-12T15:20:20.955Z,3.53
2017-10-12T15:22:47.275Z,3.60
2017-10-12T15:25:14.291Z,3.40
2017-10-12T15:27:40.558Z,3.07
2017-10-12T15:30:06.812Z,3.47
2017-10-12T15:32:33.822Z,3.80
2017-10-12T15:35:00.100Z,3.53
2017-10-12T15:37:26.398Z,2.70
2017-10-12T15:39:52.899Z,3.63
2017-10-12T15:42:19.163Z,3.60
2017-10-12T15:44:45.428Z,2.60
2017-10-12T15:47:11.751Z,3.40
2017-10-12T15:49:38.787Z,3.07
2017-10-12T15:52:05.054Z,3.27
2017-10-12T15:54:31.324Z,3.50
2017-10-12T15:56:57.611Z,2.97
2017-10-12T15:59:23.879Z,3.30
2017-10-12T16:01:50.151Z,3.40
2017-10-12T16:04:16.390Z,3.13
2017-10-12T16:06:42.651Z,4.03
2017-10-12T16:09:09.701Z,2.87
2017-10-12T16:11:35.978Z,2.70
2017-10-12T16:14:03.007Z,3.40
2017-10-12T16:16:30.046Z,3.03
2017-10-12T16:18:57.031Z,3.43
2017-10-12T16:21:24.621Z,2.70
2017-10-12T16:23:50.935Z,2.90
2017-10-12T16:26:17.914Z,2.50
2017-10-12T16:28:44.183Z,2.40
2017-10-12T16:31:10.643Z,2.70
2017-10-12T16:33:37.658Z,3.00
2017-10-12T16:36:04.767Z,3.37
2017-10-12T16:38:32.591Z,2.90
2017-10-12T16:40:59.073Z,4.43
2017-10-12T16:43:25.460Z,3.10
2017-10-12T16:45:51.808Z,3.47
2017-10-12T16:48:18.197Z,3.40
2017-10-12T16:53:11.744Z,2.77
2017-10-12T16:55:38.168Z,4.60
2017-10-12T16:58:04.546Z,2.40
2017-10-12T17:00:31.720Z,3.00
2017-10-12T17:02:58.077Z,3.80
2017-10-12T17:05:24.461Z,2.63
2017-10-12T17:07:52.643Z,3.60
2017-10-12T17:10:19.017Z,3.20
2017-10-12T17:12:46.306Z,3.63
2017-10-12T17:15:12.673Z,8.43
2017-10-12T17:17:39.823Z,4.10
2017-10-12T17:20:06.216Z,3.97
2017-10-12T17:22:34.432Z,4.10
2017-10-12T17:25:01.645Z,3.53
2017-10-12T17:27:28.023Z,4.67
2017-10-12T17:29:54.327Z,5.17
2017-10-12T17:32:20.614Z,3.23
2017-10-12T17:34:47.622Z,2.97
2017-10-12T17:37:13.932Z,4.57
2017-10-12T17:39:40.227Z,3.90
2017-10-12T17:42:06.860Z,3.80
2017-10-12T17:44:33.400Z,2.67
2017-10-12T17:46:59.784Z,3.27
2017-10-12T17:49:26.816Z,2.83
2017-10-12T17:51:53.836Z,3.57
2017-10-12T17:56:46.522Z,3.27
2017-10-12T17:59:13.703Z,3.40
2017-10-12T18:01:40.792Z,2.90
2017-10-12T18:04:07.040Z,3.00
2017-10-12T18:06:33.330Z,3.00
2017-10-12T18:09:00.411Z,2.83
2017-10-12T18:11:26.698Z,3.00
2017-10-12T18:13:53.759Z,3.57
2017-10-12T18:16:20.034Z,2.57
2017-10-12T18:18:46.323Z,2.40
2017-10-12T18:21:12.853Z,2.50
2017-10-12T18:23:39.918Z,3.13
2017-10-12T18:26:07.693Z,3.20
2017-10-12T18:28:34.116Z,3.40
2017-10-12T18:31:00.517Z,4.50
2017-10-12T18:33:27.678Z,2.30
2017-10-12T18:35:54.125Z,2.60
2017-10-12T18:38:20.370Z,2.60
2017-10-12T18:40:46.671Z,3.20
2017-10-12T18:43:13.144Z,2.77
2017-10-12T18:45:39.436Z,2.83
2017-10-12T18:48:06.431Z,3.00
2017-10-12T18:50:32.834Z,2.30
2017-10-12T18:52:59.177Z,2.80
2017-10-12T18:55:25.445Z,2.67
2017-10-12T18:57:51.805Z,3.40
2017-10-12T19:00:18.127Z,3.00
2017-10-12T19:02:44.420Z,3.87
2017-10-12T19:05:10.832Z,2.83
2017-10-12T19:07:37.880Z,2.40
2017-10-12T19:10:04.212Z,3.10
2017-10-12T19:12:31.324Z,2.90
2017-10-12T19:14:57.630Z,2.13
2017-10-12T19:17:24.682Z,2.83
2017-10-12T19:19:51.823Z,2.70
2017-10-12T19:22:18.937Z,3.00
2017-10-12T19:24:45.237Z,2.87
2017-10-12T19:27:11.562Z,2.63
2017-10-12T19:29:37.931Z,3.40
2017-10-12T19:32:04.273Z,3.37
2017-10-12T19:34:30.619Z,2.90
2017-10-12T19:36:56.956Z,2.80
2017-10-12T19:39:23.379Z,2.87
2017-10-12T19:41:49.880Z,3.30
2017-10-12T19:44:16.377Z,3.37
2017-10-12T19:46:44.270Z,3.83
2017-10-12T19:49:10.640Z,3.60
2017-10-12T19:51:36.955Z,2.57
2017-10-12T19:54:04.005Z,3.33
2017-10-12T19:56:31.801Z,3.30
2017-10-12T19:59:05.094Z,3.50
2017-10-12T20:01:24.464Z,2.73
2017-10-12T20:03:50.809Z,3.50
2017-10-12T20:06:18.759Z,4.50
2017-10-12T20:08:45.352Z,2.67
2017-10-12T20:11:12.487Z,3.10
2017-10-12T20:13:39.491Z,2.50
2017-10-12T20:16:05.752Z,3.50
2017-10-12T20:18:32.940Z,4.20
2017-10-12T20:20:59.950Z,3.27
2017-10-12T20:23:26.211Z,2.93
2017-10-12T20:28:13.698Z,3.13
2017-10-12T20:30:39.975Z,4.50
2017-10-12T20:33:06.252Z,2.30
2017-10-12T20:35:33.293Z,3.20
2017-10-12T20:37:59.530Z,4.27
2017-10-12T20:40:26.538Z,2.87
2017-10-12T20:42:52.886Z,2.10
2017-10-12T20:45:19.691Z,2.67
2017-10-12T20:47:46.397Z,2.37
2017-10-12T20:50:12.757Z,3.23
2017-10-12T20:52:40.047Z,3.33
2017-10-12T20:57:35.026Z,3.30
2017-10-12T21:00:02.843Z,2.50
2017-10-12T21:04:56.334Z,4.17
2017-10-12T21:07:22.739Z,3.80
2017-10-12T21:09:49.164Z,3.90
2017-10-12T21:12:15.619Z,2.60
2017-10-12T21:14:42.080Z,2.40
2017-10-12T21:17:08.504Z,3.23
2017-10-12T21:19:34.983Z,3.03
2017-10-12T21:22:02.164Z,2.67
2017-10-12T21:24:29.267Z,2.80
2017-10-12T21:26:55.620Z,3.40
2017-10-12T21:29:22.697Z,3.30
2017-10-12T21:31:48.975Z,2.97
2017-10-12T21:34:15.996Z,3.00
2017-10-12T21:36:43.726Z,3.00
2017-10-12T21:39:09.986Z,4.30
2017-10-12T21:41:36.385Z,5.63
2017-10-12T21:44:02.732Z,9.83
2017-10-12T21:46:29.220Z,9.87
2017-10-12T21:48:56.490Z,21.77
2017-10-12T21:51:22.862Z,8.60
2017-10-12T21:53:49.157Z,15.37
2017-10-12T21:56:15.450Z,9.23
2017-10-12T21:58:41.683Z,8.23
2017-10-12T22:01:07.926Z,5.60
2017-10-12T22:03:34.234Z,14.10
2017-10-12T22:06:00.510Z,10.87
2017-10-12T22:08:26.751Z,5.40
2017-10-12T22:10:53.099Z,6.07
2017-10-12T22:13:19.357Z,10.17
2017-10-12T22:15:45.646Z,8.73
2017-10-12T22:18:12.757Z,5.20
2017-10-12T22:20:39.037Z,4.07
2017-10-12T22:23:05.310Z,3.63
2017-10-12T22:25:31.545Z,6.93
2017-10-12T22:27:58.546Z,4.80
2017-10-12T22:30:24.814Z,5.30
2017-10-12T22:32:51.289Z,3.70
2017-10-12T22:35:19.017Z,2.63
2017-10-12T22:37:45.257Z,6.47
2017-10-12T22:40:11.744Z,3.60
2017-10-12T22:42:38.749Z,4.00
2017-10-12T22:45:04.997Z,4.83
2017-10-12T22:47:31.354Z,4.50
2017-10-12T22:49:58.389Z,3.40
2017-10-12T22:52:24.655Z,3.73
2017-10-12T22:54:51.692Z,3.13
2017-10-12T22:57:17.927Z,4.13
2017-10-12T22:59:44.182Z,3.20
2017-10-12T23:02:11.197Z,2.63
2017-10-12T23:04:37.458Z,3.37
2017-10-12T23:07:04.440Z,2.70
2017-10-12T23:09:30.749Z,2.23
2017-10-12T23:11:57.798Z,3.17
2017-10-12T23:14:24.029Z,2.43
2017-10-12T23:16:51.145Z,3.27
2017-10-12T23:19:17.411Z,2.73
2017-10-12T23:21:43.679Z,2.47
2017-10-12T23:24:10.111Z,2.60
2017-10-12T23:26:37.112Z,2.70
2017-10-12T23:29:04.137Z,2.93
2017-10-12T23:31:30.392Z,2.33
2017-10-12T23:33:56.637Z,2.80
2017-10-12T23:36:22.885Z,2.60
2017-10-12T23:38:49.116Z,2.90
2017-10-12T23:41:15.362Z,2.33
2017-10-12T23:43:41.593Z,3.17
2017-10-12T23:46:07.857Z,3.00
2017-10-12T23:48:35.731Z,2.37
2017-10-12T23:51:02.050Z,3.10
2017-10-12T23:53:28.334Z,4.13
2017-10-12T23:55:54.581Z,13.40
2017-10-12T23:58:20.868Z,6.03
